createdAt,value
2019-05-20T00:01:22.590Z,96085.18
2019-05-20T00:03:50.043Z,96081.32
2019-05-20T00:06:17.508Z,96081.52
2019-05-20T00:08:45.040Z,96083.59
2019-05-20T00:11:12.609Z,96075.17
2019-05-20T00:13:40.109Z,96079.18
2019-05-20T00:16:07.591Z,96078.05
2019-05-20T00:18:35.069Z,96082.55
2019-05-20T00:21:02.546Z,96086.66
2019-05-20T00:23:30.050Z,96080.41
2019-05-20T00:25:57.618Z,96084.83
2019-05-20T00:28:25.061Z,96077.01
2019-05-20T00:30:52.564Z,96075.00
2019-05-20T00:33:20.131Z,96076.14
2019-05-20T00:35:47.610Z,96079.14
2019-05-20T00:38:15.097Z,96074.46
2019-05-20T00:40:42.559Z,96080.72
2019-05-20T00:43:10.024Z,96073.27
2019-05-20T00:45:37.526Z,96075.92
2019-05-20T00:48:04.977Z,96080.69
2019-05-20T00:50:32.485Z,96077.86
2019-05-20T00:52:59.948Z,96078.31
2019-05-20T00:55:28.205Z,96080.14
2019-05-20T00:57:55.648Z,96083.01
2019-05-20T01:00:23.185Z,96086.13
2019-05-20T01:02:56.846Z,96082.20
2019-05-20T01:05:18.189Z,96081.80
2019-05-20T01:07:45.663Z,96082.98
2019-05-20T01:10:13.139Z,96084.86
2019-05-20T01:12:40.591Z,96081.75
2019-05-20T01:15:08.130Z,96080.91
2019-05-20T01:17:35.640Z,96084.20
2019-05-20T01:20:03.142Z,96077.42
2019-05-20T01:22:30.610Z,96082.22
2019-05-20T01:24:58.106Z,96076.83
2019-05-20T01:27:25.549Z,96075.11
2019-05-20T01:29:53.035Z,96078.30
2019-05-20T01:32:20.491Z,96081.67
2019-05-20T01:34:47.986Z,96080.00
2019-05-20T01:37:15.435Z,96076.84
2019-05-20T01:39:42.933Z,96079.86
2019-05-20T01:42:10.431Z,96081.38
2019-05-20T01:44:37.958Z,96078.27
2019-05-20T01:47:05.405Z,96081.45
2019-05-20T01:49:32.902Z,96081.55
2019-05-20T01:52:00.584Z,96078.55
2019-05-20T01:54:28.052Z,96081.81
2019-05-20T01:56:55.507Z,96081.81
2019-05-20T01:59:22.991Z,96082.37
2019-05-20T02:01:50.552Z,96085.52
2019-05-20T02:04:18.050Z,96084.06
2019-05-20T02:06:45.576Z,96082.80
2019-05-20T02:09:13.013Z,96079.95
2019-05-20T02:11:40.490Z,96075.99
2019-05-20T02:14:24.823Z,96076.95
2019-05-20T02:16:52.342Z,96076.48
2019-05-20T02:19:19.875Z,96080.22
2019-05-20T02:21:47.351Z,96081.18
2019-05-20T02:24:14.836Z,96081.84
2019-05-20T02:26:42.305Z,96080.93
2019-05-20T02:29:09.843Z,96079.20
2019-05-20T02:31:37.327Z,96083.84
2019-05-20T02:34:04.841Z,96086.13
2019-05-20T02:36:32.344Z,96078.49
2019-05-20T02:38:59.810Z,96079.09
2019-05-20T02:41:27.273Z,96080.69
2019-05-20T02:43:54.800Z,96083.84
2019-05-20T02:46:22.301Z,96083.73
2019-05-20T02:48:49.811Z,96083.87
2019-05-20T02:51:17.313Z,96084.20
2019-05-20T02:53:44.887Z,96079.59
2019-05-20T02:56:12.337Z,96086.81
2019-05-20T02:58:39.890Z,96078.91
2019-05-20T03:01:07.374Z,96082.45
2019-05-20T03:03:35.594Z,96084.02
2019-05-20T03:06:03.115Z,96087.28
2019-05-20T03:08:30.561Z,96081.98
2019-05-20T03:10:58.017Z,96080.71
2019-05-20T03:13:25.941Z,96079.80
2019-05-20T03:15:53.365Z,96078.81
2019-05-20T03:18:20.854Z,96080.91
2019-05-20T03:20:48.314Z,96085.41
2019-05-20T03:23:15.920Z,96083.18
2019-05-20T03:25:43.414Z,96085.88
2019-05-20T03:28:10.894Z,96086.27
2019-05-20T03:30:38.345Z,96080.55
2019-05-20T03:33:05.848Z,96088.95
2019-05-20T03:35:33.329Z,96085.13
2019-05-20T03:38:00.812Z,96086.95
2019-05-20T03:40:28.362Z,96097.11
2019-05-20T03:42:55.815Z,96099.52
2019-05-20T03:45:23.269Z,96093.26
2019-05-20T03:47:50.745Z,96098.66
2019-05-20T03:50:18.195Z,96095.16
2019-05-20T03:52:45.858Z,96098.33
2019-05-20T03:55:13.346Z,96096.96
2019-05-20T03:57:40.841Z,96103.94
2019-05-20T04:00:08.317Z,96105.91
2019-05-20T04:02:35.817Z,96100.74
2019-05-20T04:05:03.576Z,96102.34
2019-05-20T04:07:30.791Z,96094.42
2019-05-20T04:09:58.273Z,96098.44
2019-05-20T04:12:25.929Z,96100.45
2019-05-20T04:14:53.698Z,96097.23
2019-05-20T04:17:21.153Z,96095.67
2019-05-20T04:19:48.670Z,96102.94
2019-05-20T04:22:16.372Z,96101.27
2019-05-20T04:24:43.847Z,96101.70
2019-05-20T04:27:11.316Z,96103.05
2019-05-20T04:29:38.819Z,96104.52
2019-05-20T04:32:06.311Z,96106.80
2019-05-20T04:34:33.813Z,96112.52
2019-05-20T04:37:01.258Z,96108.49
2019-05-20T04:39:28.751Z,96110.70
2019-05-20T04:41:56.251Z,96111.67
2019-05-20T04:44:23.793Z,96118.63
2019-05-20T04:46:51.386Z,96110.00
2019-05-20T04:49:19.229Z,96122.31
2019-05-20T04:51:46.792Z,96129.78
2019-05-20T04:54:14.251Z,96133.61
2019-05-20T04:56:41.843Z,96132.89
2019-05-20T04:59:09.317Z,96127.33
2019-05-20T05:01:36.856Z,96131.52
2019-05-20T05:04:04.316Z,96139.51
2019-05-20T05:06:31.805Z,96135.42
2019-05-20T05:08:59.300Z,96136.72
2019-05-20T05:11:26.788Z,96134.17
2019-05-20T05:13:54.306Z,96138.69
2019-05-20T05:16:21.889Z,96134.78
2019-05-20T05:18:49.551Z,96139.31
2019-05-20T05:21:17.059Z,96138.33
2019-05-20T05:23:58.297Z,96140.74
2019-05-20T05:26:12.132Z,96139.23
2019-05-20T05:28:40.506Z,96143.30
2019-05-20T05:31:07.989Z,96151.90
2019-05-20T05:33:35.710Z,96144.98
2019-05-20T05:36:03.267Z,96155.14
2019-05-20T05:38:30.772Z,96160.59
2019-05-20T05:40:58.363Z,96161.27
2019-05-20T05:43:25.817Z,96165.81
2019-05-20T05:45:53.413Z,96160.69
2019-05-20T05:48:20.870Z,96161.52
2019-05-20T05:50:48.359Z,96161.30
2019-05-20T05:53:15.860Z,96164.05
2019-05-20T05:55:44.229Z,96165.02
2019-05-20T05:58:11.825Z,96169.84
2019-05-20T06:00:39.313Z,96176.66
2019-05-20T06:03:06.799Z,96181.83
2019-05-20T06:05:34.327Z,96183.45
2019-05-20T06:08:01.875Z,96188.89
2019-05-20T06:10:29.324Z,96183.83
2019-05-20T06:12:56.836Z,96187.67
2019-05-20T06:15:24.644Z,96185.11
2019-05-20T06:17:52.113Z,96182.23
2019-05-20T06:20:19.587Z,96188.80
2019-05-20T06:22:47.080Z,96194.50
2019-05-20T06:25:14.685Z,96196.09
2019-05-20T06:27:42.189Z,96194.69
2019-05-20T06:30:09.785Z,96189.23
2019-05-20T06:32:37.399Z,96196.05
2019-05-20T06:35:06.663Z,96195.72
2019-05-20T06:37:34.175Z,96198.15
2019-05-20T06:40:01.668Z,96209.84
2019-05-20T06:42:29.121Z,96208.34
2019-05-20T06:44:57.392Z,96208.95
2019-05-20T06:47:24.618Z,96218.49
2019-05-20T06:49:52.430Z,96215.80
2019-05-20T06:52:34.802Z,96224.40
2019-05-20T06:54:48.099Z,96224.34
2019-05-20T06:57:15.817Z,96234.96
2019-05-20T06:59:43.302Z,96239.94
2019-05-20T07:02:10.769Z,96234.71
2019-05-20T07:04:38.273Z,96240.02
2019-05-20T07:07:20.022Z,96244.52
2019-05-20T07:09:33.322Z,96242.64
2019-05-20T07:12:00.804Z,96244.39
2019-05-20T07:14:28.300Z,96242.17
2019-05-20T07:16:55.782Z,96247.70
2019-05-20T07:19:23.268Z,96254.45
2019-05-20T07:21:50.795Z,96256.26
2019-05-20T07:24:18.297Z,96250.15
2019-05-20T07:26:46.714Z,96255.38
2019-05-20T07:29:14.385Z,96250.27
2019-05-20T07:31:41.863Z,96259.26
2019-05-20T07:34:09.431Z,96256.92
2019-05-20T07:36:36.881Z,96255.52
2019-05-20T07:39:04.636Z,96260.41
2019-05-20T07:41:33.114Z,96264.42
2019-05-20T07:44:00.669Z,96266.98
2019-05-20T07:46:28.247Z,96256.31
2019-05-20T07:48:55.754Z,96256.45
2019-05-20T07:51:23.219Z,96256.56
2019-05-20T07:53:50.822Z,96260.25
2019-05-20T07:56:20.338Z,96258.81
2019-05-20T07:58:48.040Z,96265.29
2019-05-20T08:01:15.795Z,96268.30
2019-05-20T08:03:43.262Z,96268.12
2019-05-20T08:06:10.750Z,96268.62
2019-05-20T08:08:38.349Z,96277.27
2019-05-20T08:11:06.024Z,96279.93
2019-05-20T08:13:33.580Z,96278.47
2019-05-20T08:16:01.134Z,96278.97
2019-05-20T08:18:28.816Z,96277.06
2019-05-20T08:20:56.415Z,96283.74
2019-05-20T08:23:23.917Z,96284.37
2019-05-20T08:25:51.477Z,96288.03
2019-05-20T08:28:19.046Z,96284.75
2019-05-20T08:30:46.538Z,96287.41
2019-05-20T08:33:13.998Z,96286.80
2019-05-20T08:35:41.620Z,96284.79
2019-05-20T08:38:09.105Z,96294.03
2019-05-20T08:40:36.638Z,96292.88
2019-05-20T08:43:03.751Z,96293.62
2019-05-20T08:45:30.762Z,96299.75
2019-05-20T08:47:57.800Z,96302.72
2019-05-20T08:50:24.952Z,96300.41
2019-05-20T08:52:51.998Z,96297.52
2019-05-20T08:55:19.011Z,96304.11
2019-05-20T08:57:46.347Z,96305.96
2019-05-20T09:00:14.297Z,96312.14
2019-05-20T09:02:41.314Z,96311.47
2019-05-20T09:05:08.314Z,96313.76
2019-05-20T09:07:35.300Z,96314.68
2019-05-20T09:10:02.378Z,96315.60
2019-05-20T09:12:30.671Z,96320.02
2019-05-20T09:14:57.735Z,96311.22
2019-05-20T09:17:24.736Z,96315.14
2019-05-20T09:19:51.815Z,96316.54
2019-05-20T09:22:19.289Z,96317.11
2019-05-20T09:24:46.990Z,96321.75
2019-05-20T09:27:14.374Z,96319.21
2019-05-20T09:29:41.869Z,96323.73
2019-05-20T09:32:09.417Z,96324.55
2019-05-20T09:34:36.887Z,96325.87
2019-05-20T09:37:04.706Z,96338.19
2019-05-20T09:39:32.244Z,96333.21
2019-05-20T09:41:59.759Z,96336.44
2019-05-20T09:44:27.251Z,96335.37
2019-05-20T09:46:54.707Z,96335.73
2019-05-20T09:49:22.198Z,96339.88
2019-05-20T09:51:49.682Z,96335.34
2019-05-20T09:54:17.142Z,96338.08
2019-05-20T09:56:44.732Z,96336.44
2019-05-20T09:59:14.230Z,96342.09
2019-05-20T10:01:40.444Z,96342.67
2019-05-20T10:04:07.307Z,96339.30
2019-05-20T10:06:34.765Z,96340.57
2019-05-20T10:09:02.239Z,96347.36
2019-05-20T10:11:30.035Z,96345.80
2019-05-20T10:13:57.503Z,96343.37
2019-05-20T10:16:25.794Z,96349.93
2019-05-20T10:18:55.316Z,96350.92
2019-05-20T10:21:20.471Z,96347.19
2019-05-20T10:23:47.460Z,96349.30
2019-05-20T10:26:14.480Z,96344.30
2019-05-20T10:28:44.685Z,96350.42
2019-05-20T10:31:08.699Z,96346.70
2019-05-20T10:33:37.156Z,96358.05
2019-05-20T10:36:03.786Z,96360.00
2019-05-20T10:38:30.783Z,96359.91
2019-05-20T10:40:57.932Z,96360.64
2019-05-20T10:43:25.053Z,96363.42
2019-05-20T10:45:52.277Z,96359.30
2019-05-20T10:48:19.696Z,96370.06
2019-05-20T10:50:46.729Z,96367.85
2019-05-20T10:53:14.026Z,96365.84
2019-05-20T10:55:41.138Z,96367.45
2019-05-20T10:58:08.171Z,96366.98
2019-05-20T11:00:35.175Z,96372.47
2019-05-20T11:03:02.457Z,96367.17
2019-05-20T11:05:29.338Z,96369.59
2019-05-20T11:07:56.507Z,96373.16
2019-05-20T11:10:23.571Z,96372.21
2019-05-20T11:12:50.605Z,96379.56
2019-05-20T11:15:17.682Z,96377.32
2019-05-20T11:17:44.962Z,96384.73
2019-05-20T11:20:12.022Z,96379.30
2019-05-20T11:22:39.164Z,96378.05
2019-05-20T11:25:07.442Z,96388.64
2019-05-20T11:27:34.930Z,96385.57
2019-05-20T11:30:07.223Z,96388.36
2019-05-20T11:32:34.742Z,96389.98
2019-05-20T11:35:02.627Z,96391.31
2019-05-20T11:37:29.974Z,96390.69
2019-05-20T11:39:57.466Z,96392.97
2019-05-20T11:42:24.990Z,96398.12
2019-05-20T11:44:52.446Z,96389.09
2019-05-20T11:47:20.204Z,96389.19
2019-05-20T11:49:47.685Z,96384.59
2019-05-20T11:52:15.294Z,96383.45
2019-05-20T11:54:42.788Z,96385.97
2019-05-20T11:57:10.514Z,96384.94
2019-05-20T11:59:38.264Z,96389.33
2019-05-20T12:02:05.834Z,96385.24
2019-05-20T12:04:33.511Z,96388.37
2019-05-20T12:07:00.955Z,96383.17
2019-05-20T12:09:28.479Z,96390.77
2019-05-20T12:11:55.973Z,96389.37
2019-05-20T12:14:23.475Z,96396.27
2019-05-20T12:16:50.980Z,96395.13
2019-05-20T12:19:18.455Z,96399.69
2019-05-20T12:21:45.914Z,96403.42
2019-05-20T12:24:13.385Z,96407.62
2019-05-20T12:26:40.871Z,96409.76
2019-05-20T12:29:08.343Z,96412.19
2019-05-20T12:31:35.804Z,96411.98
2019-05-20T12:34:03.337Z,96411.98
2019-05-20T12:36:30.805Z,96416.28
2019-05-20T12:38:58.250Z,96409.85
2019-05-20T12:41:25.933Z,96417.38
2019-05-20T12:44:10.868Z,96422.16
2019-05-20T12:46:21.007Z,96420.42
2019-05-20T12:48:48.779Z,96425.25
2019-05-20T12:51:16.188Z,96421.24
2019-05-20T12:53:43.684Z,96428.47
2019-05-20T12:56:11.202Z,96429.18
2019-05-20T12:58:38.697Z,96432.61
2019-05-20T13:01:06.387Z,96429.59
2019-05-20T13:03:33.990Z,96433.48
2019-05-20T13:06:01.501Z,96432.29
2019-05-20T13:08:29.005Z,96433.07
2019-05-20T13:10:56.468Z,96435.45
2019-05-20T13:13:23.995Z,96437.14
2019-05-20T13:15:51.557Z,96435.05
2019-05-20T13:18:18.972Z,96445.73
2019-05-20T13:20:46.014Z,96433.16
2019-05-20T13:23:15.265Z,96440.52
2019-05-20T13:25:41.267Z,96442.53
2019-05-20T13:28:08.818Z,96433.08
2019-05-20T13:30:37.008Z,96446.50
2019-05-20T13:33:05.443Z,96446.64
2019-05-20T13:35:32.928Z,96450.15
2019-05-20T13:38:00.440Z,96447.34
2019-05-20T13:40:43.054Z,96445.28
2019-05-20T13:42:54.516Z,96449.65
2019-05-20T13:45:22.198Z,96444.13
2019-05-20T13:47:49.804Z,96449.87
2019-05-20T13:50:18.668Z,96454.09
2019-05-20T13:52:46.180Z,96453.94
2019-05-20T13:55:13.691Z,96453.85
2019-05-20T13:57:42.369Z,96452.94
2019-05-20T14:00:09.977Z,96455.67
2019-05-20T14:02:36.991Z,96454.67
2019-05-20T14:05:04.624Z,96460.70
2019-05-20T14:07:32.122Z,96457.32
2019-05-20T14:10:01.388Z,96460.69
2019-05-20T14:12:28.866Z,96454.63
2019-05-20T14:14:56.359Z,96447.23
2019-05-20T14:17:23.899Z,96454.17
2019-05-20T14:19:51.460Z,96456.50
2019-05-20T14:22:18.994Z,96452.33
2019-05-20T14:24:46.599Z,96456.77
2019-05-20T14:27:14.703Z,96459.51
2019-05-20T14:29:42.207Z,96458.48
2019-05-20T14:32:09.373Z,96459.75
2019-05-20T14:34:36.374Z,96454.17
2019-05-20T14:37:03.984Z,96459.30
2019-05-20T14:39:31.014Z,96456.50
2019-05-20T14:41:58.026Z,96460.04
2019-05-20T14:44:25.026Z,96454.56
2019-05-20T14:46:52.032Z,96454.59
2019-05-20T14:49:19.220Z,96458.09
2019-05-20T14:51:46.629Z,96456.16
2019-05-20T14:54:13.770Z,96457.78
2019-05-20T14:56:41.237Z,96460.94
2019-05-20T14:59:08.753Z,96465.59
2019-05-20T15:01:36.355Z,96468.66
2019-05-20T15:04:03.878Z,96468.81
2019-05-20T15:06:31.466Z,96473.62
2019-05-20T15:08:58.931Z,96478.51
2019-05-20T15:11:37.831Z,96480.56
2019-05-20T15:13:54.025Z,96474.09
2019-05-20T15:16:21.746Z,96489.16
2019-05-20T15:18:49.090Z,96479.36
2019-05-20T15:21:16.693Z,96483.30
2019-05-20T15:23:44.357Z,96490.64
2019-05-20T15:26:12.178Z,96490.60
2019-05-20T15:28:39.778Z,96490.19
2019-05-20T15:31:07.326Z,96487.17
2019-05-20T15:33:34.843Z,96483.28
2019-05-20T15:36:02.489Z,96486.67
2019-05-20T15:38:29.994Z,96488.47
2019-05-20T15:40:57.588Z,96489.67
2019-05-20T15:43:25.072Z,96486.80
2019-05-20T15:45:52.672Z,96484.86
2019-05-20T15:48:20.176Z,96483.73
2019-05-20T15:50:47.657Z,96487.80
2019-05-20T15:53:16.536Z,96486.16
2019-05-20T15:55:43.996Z,96492.77
2019-05-20T15:58:11.483Z,96491.28
2019-05-20T16:00:38.976Z,96495.16
2019-05-20T16:03:06.431Z,96495.35
2019-05-20T16:05:34.108Z,96492.92
2019-05-20T16:08:01.900Z,96493.31
2019-05-20T16:10:29.115Z,96490.55
2019-05-20T16:12:56.762Z,96498.88
2019-05-20T16:15:25.139Z,96499.52
2019-05-20T16:17:52.656Z,96498.24
2019-05-20T16:20:20.203Z,96497.81
2019-05-20T16:22:48.234Z,96500.77
2019-05-20T16:25:15.823Z,96498.11
2019-05-20T16:27:43.302Z,96505.50
2019-05-20T16:30:10.986Z,96507.78
2019-05-20T16:32:38.456Z,96505.73
2019-05-20T16:35:05.988Z,96507.21
2019-05-20T16:37:33.686Z,96509.17
2019-05-20T16:40:01.310Z,96511.09
2019-05-20T16:42:28.872Z,96515.54
2019-05-20T16:44:56.434Z,96513.58
2019-05-20T16:47:23.914Z,96512.36
2019-05-20T16:49:51.690Z,96514.59
2019-05-20T16:52:19.155Z,96516.73
2019-05-20T16:54:46.630Z,96520.78
2019-05-20T16:57:14.097Z,96516.73
2019-05-20T16:59:41.771Z,96520.11
2019-05-20T17:02:09.279Z,96521.02
2019-05-20T17:04:36.760Z,96526.73
2019-05-20T17:07:04.314Z,96529.70
2019-05-20T17:09:31.843Z,96533.67
2019-05-20T17:11:59.301Z,96529.25
2019-05-20T17:14:27.067Z,96531.84
2019-05-20T17:16:55.571Z,96529.78
2019-05-20T17:19:23.222Z,96531.71
2019-05-20T17:21:50.708Z,96532.72
2019-05-20T17:24:18.271Z,96531.26
2019-05-20T17:26:45.836Z,96525.03
2019-05-20T17:29:13.420Z,96520.04
2019-05-20T17:31:40.950Z,96529.98
2019-05-20T17:34:08.451Z,96532.30
2019-05-20T17:36:36.007Z,96533.77
2019-05-20T17:39:03.507Z,96534.89
2019-05-20T17:41:31.033Z,96529.38
2019-05-20T17:43:58.654Z,96537.06
2019-05-20T17:46:26.180Z,96535.80
2019-05-20T17:48:53.682Z,96544.53
2019-05-20T17:51:21.250Z,96549.33
2019-05-20T17:53:48.796Z,96547.53
2019-05-20T17:56:16.353Z,96551.76
2019-05-20T17:58:43.874Z,96555.14
2019-05-20T18:01:15.231Z,96555.75
2019-05-20T18:03:38.947Z,96559.58
2019-05-20T18:06:06.754Z,96553.46
2019-05-20T18:08:34.304Z,96561.98
2019-05-20T18:11:01.870Z,96567.88
2019-05-20T18:13:29.549Z,96566.99
2019-05-20T18:15:57.043Z,96564.77
2019-05-20T18:18:24.508Z,96570.34
2019-05-20T18:20:52.087Z,96572.94
2019-05-20T18:23:19.712Z,96572.98
2019-05-20T18:25:47.221Z,96580.00
2019-05-20T18:28:14.704Z,96580.34
2019-05-20T18:30:42.307Z,96587.13
2019-05-20T18:33:09.776Z,96589.28
2019-05-20T18:35:37.405Z,96584.95
2019-05-20T18:38:04.888Z,96585.09
2019-05-20T18:40:32.459Z,96590.81
2019-05-20T18:43:00.081Z,96593.27
2019-05-20T18:45:27.578Z,96596.13
2019-05-20T18:47:55.687Z,96591.89
2019-05-20T18:50:23.177Z,96595.16
2019-05-20T18:52:50.648Z,96597.39
2019-05-20T18:55:18.182Z,96598.87
2019-05-20T18:57:45.634Z,96597.55
2019-05-20T19:00:13.175Z,96598.23
2019-05-20T19:02:40.646Z,96598.14
2019-05-20T19:05:08.984Z,96608.72
2019-05-20T19:07:37.135Z,96603.01
2019-05-20T19:10:04.787Z,96605.95
2019-05-20T19:12:32.295Z,96610.33
2019-05-20T19:14:59.850Z,96605.05
2019-05-20T19:17:27.521Z,96607.60
2019-05-20T19:22:27.653Z,96612.34
2019-05-20T19:24:55.139Z,96613.88
2019-05-20T19:27:22.615Z,96617.77
2019-05-20T19:29:50.415Z,96620.61
2019-05-20T19:32:18.039Z,96626.67
2019-05-20T19:34:45.591Z,96628.03
2019-05-20T19:37:13.082Z,96635.50
2019-05-20T19:39:40.552Z,96641.24
2019-05-20T19:42:08.155Z,96644.66
2019-05-20T19:44:36.154Z,96646.73
2019-05-20T19:47:03.643Z,96646.41
2019-05-20T19:49:31.136Z,96656.61
2019-05-20T19:51:58.723Z,96651.91
2019-05-20T19:54:26.202Z,96661.07
2019-05-20T19:56:53.671Z,96665.16
2019-05-20T19:59:21.271Z,96672.05
2019-05-20T20:01:48.730Z,96674.98
2019-05-20T20:04:16.236Z,96674.77
2019-05-20T20:06:43.711Z,96680.83
2019-05-20T20:09:11.231Z,96681.03
2019-05-20T20:11:38.870Z,96683.80
2019-05-20T20:14:06.352Z,96681.57
2019-05-20T20:16:34.034Z,96684.38
2019-05-20T20:19:01.068Z,96686.78
2019-05-20T20:21:28.114Z,96686.74
2019-05-20T20:23:57.218Z,96680.76
2019-05-20T20:26:25.565Z,96691.73
2019-05-20T20:28:53.119Z,96694.92
2019-05-20T20:31:20.565Z,96696.94
2019-05-20T20:33:48.023Z,96694.70
2019-05-20T20:36:15.467Z,96693.27
2019-05-20T20:38:42.991Z,96700.20
2019-05-20T20:41:10.534Z,96704.45
2019-05-20T20:43:38.028Z,96702.52
2019-05-20T20:46:05.485Z,96707.80
2019-05-20T20:48:32.510Z,96710.52
2019-05-20T20:50:59.976Z,96707.51
2019-05-20T20:53:27.025Z,96710.56
2019-05-20T20:55:54.915Z,96704.03
2019-05-20T20:58:21.957Z,96709.16
2019-05-20T21:00:48.979Z,96714.02
2019-05-20T21:03:15.979Z,96711.17
2019-05-20T21:05:42.973Z,96712.20
2019-05-20T21:08:10.465Z,96711.94
2019-05-20T21:10:38.023Z,96711.16
2019-05-20T21:13:05.608Z,96708.10
2019-05-20T21:15:33.060Z,96707.38
2019-05-20T21:18:00.536Z,96708.83
2019-05-20T21:20:28.009Z,96712.39
2019-05-20T21:22:55.482Z,96704.80
2019-05-20T21:25:22.951Z,96709.17
2019-05-20T21:27:50.462Z,96709.28
2019-05-20T21:30:17.925Z,96714.22
2019-05-20T21:32:45.433Z,96712.06
2019-05-20T21:35:13.023Z,96711.28
2019-05-20T21:37:40.489Z,96717.38
2019-05-20T21:40:08.050Z,96712.69
2019-05-20T21:42:35.579Z,96716.94
2019-05-20T21:45:03.070Z,96717.69
2019-05-20T21:47:30.614Z,96714.95
2019-05-20T21:49:58.058Z,96718.05
2019-05-20T21:52:25.535Z,96716.34
2019-05-20T21:54:53.102Z,96713.80
2019-05-20T21:57:21.441Z,96712.11
2019-05-20T21:59:48.945Z,96712.94
2019-05-20T22:02:16.548Z,96713.95
2019-05-20T22:04:44.005Z,96723.67
2019-05-20T22:07:11.562Z,96726.20
2019-05-20T22:09:39.427Z,96730.59
2019-05-20T22:12:06.881Z,96725.83
2019-05-20T22:14:34.343Z,96734.38
2019-05-20T22:17:01.809Z,96737.41
2019-05-20T22:19:29.264Z,96731.96
2019-05-20T22:21:56.781Z,96733.75
2019-05-20T22:24:24.254Z,96742.27
2019-05-20T22:26:51.758Z,96741.86
2019-05-20T22:29:19.391Z,96743.00
2019-05-20T22:31:46.382Z,96740.80
2019-05-20T22:34:13.827Z,96737.94
2019-05-20T22:36:41.281Z,96738.78
2019-05-20T22:39:08.738Z,96742.25
2019-05-20T22:41:36.221Z,96741.72
2019-05-20T22:44:03.694Z,96742.94
2019-05-20T22:46:31.221Z,96757.36
2019-05-20T22:48:58.676Z,96747.74
2019-05-20T22:51:26.123Z,96749.73
2019-05-20T22:53:53.619Z,96750.92
2019-05-20T22:56:21.100Z,96745.44
2019-05-20T22:58:49.174Z,96744.76
2019-05-20T23:01:16.722Z,96742.31
2019-05-20T23:03:55.547Z,96751.23
2019-05-20T23:06:11.792Z,96744.56
2019-05-20T23:08:39.396Z,96751.63
2019-05-20T23:11:06.876Z,96749.66
2019-05-20T23:13:34.339Z,96740.62
2019-05-20T23:16:01.916Z,96746.59
2019-05-20T23:18:29.371Z,96737.92
2019-05-20T23:20:56.840Z,96726.45
2019-05-20T23:23:24.296Z,96728.97
2019-05-20T23:25:52.915Z,96737.17
2019-05-20T23:28:19.300Z,96737.48
2019-05-20T23:30:46.763Z,96728.63
2019-05-20T23:33:14.394Z,96734.80
2019-05-20T23:35:41.851Z,96739.63
2019-05-20T23:38:09.333Z,96733.22
2019-05-20T23:40:36.836Z,96733.53
2019-05-20T23:43:04.324Z,96740.25
2019-05-20T23:45:31.798Z,96734.66
2019-05-20T23:47:59.673Z,96736.86
2019-05-20T23:50:27.212Z,96739.37
2019-05-20T23:52:54.687Z,96745.18
2019-05-20T23:55:22.180Z,96747.63
2019-05-20T23:57:49.632Z,96748.84
